sensor_id;sensor_type;location;lat;lon;timestamp;P1;durP1;ratioP1;P2;durP2;ratioP2
51588;SDS011;37671;53.258;6.460;2022-07-23T00:00:05;5.90;;;3.47;;
51588;SDS011;37671;53.258;6.460;2022-07-23T00:02:35;6.70;;;3.03;;
51588;SDS011;37671;53.258;6.460;2022-07-23T00:05:00;7.93;;;3.20;;
51588;SDS011;37671;53.258;6.460;2022-07-23T00:07:26;6.75;;;3.35;;
51588;SDS011;37671;53.258;6.460;2022-07-23T00:09:52;6.90;;;3.20;;
51588;SDS011;37671;53.258;6.460;2022-07-23T00:12:18;4.80;;;3.20;;
51588;SDS011;37671;53.258;6.460;2022-07-23T00:14:43;6.32;;;3.33;;
51588;SDS011;37671;53.258;6.460;2022-07-23T00:17:09;6.10;;;3.05;;
51588;SDS011;37671;53.258;6.460;2022-07-23T00:19:34;8.15;;;3.83;;
51588;SDS011;37671;53.258;6.460;2022-07-23T00:22:00;7.50;;;3.58;;
51588;SDS011;37671;53.258;6.460;2022-07-23T00:24:26;5.28;;;3.10;;
51588;SDS011;37671;53.258;6.460;2022-07-23T00:26:51;5.40;;;3.22;;
51588;SDS011;37671;53.258;6.460;2022-07-23T00:29:17;5.38;;;3.08;;
51588;SDS011;37671;53.258;6.460;2022-07-23T00:31:42;6.50;;;3.55;;
51588;SDS011;37671;53.258;6.460;2022-07-23T00:34:08;6.85;;;3.38;;
51588;SDS011;37671;53.258;6.460;2022-07-23T00:36:34;7.80;;;3.00;;
51588;SDS011;37671;53.258;6.460;2022-07-23T00:38:59;9.38;;;3.65;;
51588;SDS011;37671;53.258;6.460;2022-07-23T00:41:25;7.85;;;3.78;;
51588;SDS011;37671;53.258;6.460;2022-07-23T00:43:50;6.70;;;3.25;;
51588;SDS011;37671;53.258;6.460;2022-07-23T00:46:22;5.82;;;3.20;;
51588;SDS011;37671;53.258;6.460;2022-07-23T00:48:48;7.00;;;3.35;;
51588;SDS011;37671;53.258;6.460;2022-07-23T00:51:17;5.90;;;3.05;;
51588;SDS011;37671;53.258;6.460;2022-07-23T00:53:43;7.38;;;3.33;;
51588;SDS011;37671;53.258;6.460;2022-07-23T00:56:10;7.13;;;3.15;;
51588;SDS011;37671;53.258;6.460;2022-07-23T00:58:36;7.28;;;3.35;;
51588;SDS011;37671;53.258;6.460;2022-07-23T01:01:04;6.95;;;3.25;;
51588;SDS011;37671;53.258;6.460;2022-07-23T01:03:30;6.55;;;3.35;;
51588;SDS011;37671;53.258;6.460;2022-07-23T01:05:55;6.30;;;3.20;;
51588;SDS011;37671;53.258;6.460;2022-07-23T01:08:22;6.70;;;3.47;;
51588;SDS011;37671;53.258;6.460;2022-07-23T01:10:48;9.23;;;3.72;;
51588;SDS011;37671;53.258;6.460;2022-07-23T01:13:16;7.68;;;3.63;;
51588;SDS011;37671;53.258;6.460;2022-07-23T01:15:41;8.45;;;3.53;;
51588;SDS011;37671;53.258;6.460;2022-07-23T01:18:07;7.25;;;3.65;;
51588;SDS011;37671;53.258;6.460;2022-07-23T01:20:33;7.90;;;3.80;;
51588;SDS011;37671;53.258;6.460;2022-07-23T01:22:59;7.22;;;3.50;;
51588;SDS011;37671;53.258;6.460;2022-07-23T01:25:25;6.85;;;4.13;;
51588;SDS011;37671;53.258;6.460;2022-07-23T01:27:51;6.85;;;3.60;;
51588;SDS011;37671;53.258;6.460;2022-07-23T01:30:17;7.10;;;3.80;;
51588;SDS011;37671;53.258;6.460;2022-07-23T01:32:43;6.85;;;4.40;;
51588;SDS011;37671;53.258;6.460;2022-07-23T01:35:09;6.50;;;4.03;;
51588;SDS011;37671;53.258;6.460;2022-07-23T01:37:35;7.63;;;3.67;;
51588;SDS011;37671;53.258;6.460;2022-07-23T01:40:01;6.20;;;4.30;;
51588;SDS011;37671;53.258;6.460;2022-07-23T01:42:27;6.57;;;4.20;;
51588;SDS011;37671;53.258;6.460;2022-07-23T01:44:53;7.82;;;4.30;;
51588;SDS011;37671;53.258;6.460;2022-07-23T01:47:18;8.40;;;4.35;;
51588;SDS011;37671;53.258;6.460;2022-07-23T01:49:44;8.55;;;4.35;;
51588;SDS011;37671;53.258;6.460;2022-07-23T01:52:10;9.13;;;4.78;;
51588;SDS011;37671;53.258;6.460;2022-07-23T01:54:36;8.15;;;4.68;;
51588;SDS011;37671;53.258;6.460;2022-07-23T01:57:03;7.35;;;4.50;;
51588;SDS011;37671;53.258;6.460;2022-07-23T01:59:30;8.10;;;5.00;;
51588;SDS011;37671;53.258;6.460;2022-07-23T02:01:55;7.60;;;4.65;;
51588;SDS011;37671;53.258;6.460;2022-07-23T02:04:22;9.48;;;4.70;;
51588;SDS011;37671;53.258;6.460;2022-07-23T02:06:49;8.82;;;4.40;;
51588;SDS011;37671;53.258;6.460;2022-07-23T02:09:15;7.32;;;4.70;;
51588;SDS011;37671;53.258;6.460;2022-07-23T02:11:41;8.82;;;4.75;;
51588;SDS011;37671;53.258;6.460;2022-07-23T02:14:07;8.10;;;4.18;;
51588;SDS011;37671;53.258;6.460;2022-07-23T02:16:32;9.85;;;4.50;;
51588;SDS011;37671;53.258;6.460;2022-07-23T02:18:58;6.75;;;4.15;;
51588;SDS011;37671;53.258;6.460;2022-07-23T02:21:23;7.72;;;4.47;;
51588;SDS011;37671;53.258;6.460;2022-07-23T02:23:49;8.10;;;4.47;;
51588;SDS011;37671;53.258;6.460;2022-07-23T02:26:15;6.80;;;4.35;;
51588;SDS011;37671;53.258;6.460;2022-07-23T02:28:40;9.80;;;4.43;;
51588;SDS011;37671;53.258;6.460;2022-07-23T02:31:06;6.13;;;3.95;;
51588;SDS011;37671;53.258;6.460;2022-07-23T02:33:32;5.60;;;3.75;;
51588;SDS011;37671;53.258;6.460;2022-07-23T02:35:58;7.60;;;4.25;;
51588;SDS011;37671;53.258;6.460;2022-07-23T02:38:24;8.32;;;4.20;;
51588;SDS011;37671;53.258;6.460;2022-07-23T02:40:49;6.75;;;3.70;;
51588;SDS011;37671;53.258;6.460;2022-07-23T02:43:15;6.38;;;3.95;;
51588;SDS011;37671;53.258;6.460;2022-07-23T02:45:41;6.10;;;3.95;;
51588;SDS011;37671;53.258;6.460;2022-07-23T02:48:06;8.20;;;4.50;;
51588;SDS011;37671;53.258;6.460;2022-07-23T02:50:32;8.35;;;4.05;;
51588;SDS011;37671;53.258;6.460;2022-07-23T02:52:57;5.93;;;4.13;;
51588;SDS011;37671;53.258;6.460;2022-07-23T02:55:23;9.77;;;4.00;;
51588;SDS011;37671;53.258;6.460;2022-07-23T02:57:49;9.52;;;4.30;;
51588;SDS011;37671;53.258;6.460;2022-07-23T03:00:15;8.50;;;4.35;;
51588;SDS011;37671;53.258;6.460;2022-07-23T03:02:43;8.10;;;4.03;;
51588;SDS011;37671;53.258;6.460;2022-07-23T03:05:09;8.00;;;3.45;;
51588;SDS011;37671;53.258;6.460;2022-07-23T03:07:35;7.40;;;4.10;;
51588;SDS011;37671;53.258;6.460;2022-07-23T03:10:01;9.18;;;3.95;;
51588;SDS011;37671;53.258;6.460;2022-07-23T03:12:27;8.48;;;4.25;;
51588;SDS011;37671;53.258;6.460;2022-07-23T03:14:52;5.80;;;3.97;;
51588;SDS011;37671;53.258;6.460;2022-07-23T03:17:19;9.15;;;4.40;;
51588;SDS011;37671;53.258;6.460;2022-07-23T03:19:44;10.43;;;4.53;;
51588;SDS011;37671;53.258;6.460;2022-07-23T03:22:10;9.20;;;4.40;;
51588;SDS011;37671;53.258;6.460;2022-07-23T03:24:35;7.20;;;4.50;;
51588;SDS011;37671;53.258;6.460;2022-07-23T03:27:23;7.97;;;3.97;;
51588;SDS011;37671;53.258;6.460;2022-07-23T03:29:51;8.50;;;4.50;;
51588;SDS011;37671;53.258;6.460;2022-07-23T03:32:17;7.90;;;4.00;;
51588;SDS011;37671;53.258;6.460;2022-07-23T03:34:43;8.75;;;4.47;;
51588;SDS011;37671;53.258;6.460;2022-07-23T03:37:09;7.40;;;4.47;;
51588;SDS011;37671;53.258;6.460;2022-07-23T03:39:34;8.13;;;4.20;;
51588;SDS011;37671;53.258;6.460;2022-07-23T03:42:00;8.45;;;4.43;;
51588;SDS011;37671;53.258;6.460;2022-07-23T03:44:26;8.57;;;4.20;;
51588;SDS011;37671;53.258;6.460;2022-07-23T03:46:51;6.35;;;4.35;;
51588;SDS011;37671;53.258;6.460;2022-07-23T03:49:17;7.78;;;3.92;;
51588;SDS011;37671;53.258;6.460;2022-07-23T03:51:43;6.03;;;3.97;;
51588;SDS011;37671;53.258;6.460;2022-07-23T03:54:08;8.43;;;4.80;;
51588;SDS011;37671;53.258;6.460;2022-07-23T03:56:34;8.90;;;4.40;;
51588;SDS011;37671;53.258;6.460;2022-07-23T03:59:02;7.35;;;4.43;;
51588;SDS011;37671;53.258;6.460;2022-07-23T04:01:28;9.90;;;4.28;;
51588;SDS011;37671;53.258;6.460;2022-07-23T04:03:53;8.93;;;4.57;;
51588;SDS011;37671;53.258;6.460;2022-07-23T04:06:19;8.38;;;4.40;;
51588;SDS011;37671;53.258;6.460;2022-07-23T04:08:44;9.50;;;4.38;;
51588;SDS011;37671;53.258;6.460;2022-07-23T04:11:10;8.98;;;4.82;;
51588;SDS011;37671;53.258;6.460;2022-07-23T04:13:36;8.35;;;4.13;;
51588;SDS011;37671;53.258;6.460;2022-07-23T04:16:01;6.35;;;4.28;;
51588;SDS011;37671;53.258;6.460;2022-07-23T04:18:28;9.05;;;4.28;;
51588;SDS011;37671;53.258;6.460;2022-07-23T04:20:54;7.32;;;4.70;;
51588;SDS011;37671;53.258;6.460;2022-07-23T04:23:20;8.52;;;4.03;;
51588;SDS011;37671;53.258;6.460;2022-07-23T04:25:45;6.18;;;3.53;;
51588;SDS011;37671;53.258;6.460;2022-07-23T04:28:11;8.57;;;4.05;;
51588;SDS011;37671;53.258;6.460;2022-07-23T04:30:37;9.63;;;4.28;;
51588;SDS011;37671;53.258;6.460;2022-07-23T04:33:03;9.02;;;4.50;;
51588;SDS011;37671;53.258;6.460;2022-07-23T04:35:32;9.55;;;4.53;;
51588;SDS011;37671;53.258;6.460;2022-07-23T04:37:59;7.65;;;4.13;;
51588;SDS011;37671;53.258;6.460;2022-07-23T04:40:25;8.68;;;4.35;;
51588;SDS011;37671;53.258;6.460;2022-07-23T04:42:51;10.07;;;4.25;;
51588;SDS011;37671;53.258;6.460;2022-07-23T04:45:17;7.50;;;4.05;;
51588;SDS011;37671;53.258;6.460;2022-07-23T04:47:43;5.88;;;3.58;;
51588;SDS011;37671;53.258;6.460;2022-07-23T04:50:08;6.70;;;3.45;;
51588;SDS011;37671;53.258;6.460;2022-07-23T04:52:34;6.63;;;3.08;;
51588;SDS011;37671;53.258;6.460;2022-07-23T04:55:00;4.97;;;2.97;;
51588;SDS011;37671;53.258;6.460;2022-07-23T04:57:25;5.15;;;2.60;;
51588;SDS011;37671;53.258;6.460;2022-07-23T04:59:51;6.63;;;2.65;;
51588;SDS011;37671;53.258;6.460;2022-07-23T05:02:16;5.28;;;2.78;;
51588;SDS011;37671;53.258;6.460;2022-07-23T05:04:42;4.47;;;1.90;;
51588;SDS011;37671;53.258;6.460;2022-07-23T05:07:08;7.88;;;2.47;;
51588;SDS011;37671;53.258;6.460;2022-07-23T05:09:33;6.82;;;2.20;;
51588;SDS011;37671;53.258;6.460;2022-07-23T05:11:59;5.07;;;2.50;;
51588;SDS011;37671;53.258;6.460;2022-07-23T05:14:25;6.13;;;2.20;;
51588;SDS011;37671;53.258;6.460;2022-07-23T05:16:51;8.73;;;2.60;;
51588;SDS011;37671;53.258;6.460;2022-07-23T05:19:17;5.95;;;2.30;;
51588;SDS011;37671;53.258;6.460;2022-07-23T05:21:42;4.25;;;2.22;;
51588;SDS011;37671;53.258;6.460;2022-07-23T05:24:08;5.47;;;2.80;;
51588;SDS011;37671;53.258;6.460;2022-07-23T05:26:34;6.85;;;2.40;;
51588;SDS011;37671;53.258;6.460;2022-07-23T05:28:59;7.75;;;2.50;;
51588;SDS011;37671;53.258;6.460;2022-07-23T05:31:25;5.97;;;2.38;;
51588;SDS011;37671;53.258;6.460;2022-07-23T05:33:50;5.78;;;2.60;;
51588;SDS011;37671;53.258;6.460;2022-07-23T05:36:16;5.25;;;2.38;;
51588;SDS011;37671;53.258;6.460;2022-07-23T05:38:41;4.05;;;1.83;;
51588;SDS011;37671;53.258;6.460;2022-07-23T05:41:07;6.20;;;2.33;;
51588;SDS011;37671;53.258;6.460;2022-07-23T05:43:33;3.90;;;2.25;;
51588;SDS011;37671;53.258;6.460;2022-07-23T05:45:58;5.75;;;2.60;;
51588;SDS011;37671;53.258;6.460;2022-07-23T05:48:24;3.67;;;2.33;;
51588;SDS011;37671;53.258;6.460;2022-07-23T05:50:50;4.30;;;2.08;;
51588;SDS011;37671;53.258;6.460;2022-07-23T05:53:15;9.05;;;2.20;;
51588;SDS011;37671;53.258;6.460;2022-07-23T05:55:41;4.05;;;2.10;;
51588;SDS011;37671;53.258;6.460;2022-07-23T05:58:06;5.78;;;2.30;;
51588;SDS011;37671;53.258;6.460;2022-07-23T06:00:34;6.18;;;2.58;;
51588;SDS011;37671;53.258;6.460;2022-07-23T06:03:00;3.28;;;1.73;;
51588;SDS011;37671;53.258;6.460;2022-07-23T06:05:25;4.65;;;2.25;;
51588;SDS011;37671;53.258;6.460;2022-07-23T06:07:51;4.10;;;2.08;;
51588;SDS011;37671;53.258;6.460;2022-07-23T06:10:18;7.00;;;2.88;;
51588;SDS011;37671;53.258;6.460;2022-07-23T06:12:43;3.90;;;2.30;;
51588;SDS011;37671;53.258;6.460;2022-07-23T06:15:14;4.60;;;2.60;;
51588;SDS011;37671;53.258;6.460;2022-07-23T06:17:40;7.13;;;2.70;;
51588;SDS011;37671;53.258;6.460;2022-07-23T06:20:06;5.55;;;2.40;;
51588;SDS011;37671;53.258;6.460;2022-07-23T06:22:33;5.28;;;1.90;;
51588;SDS011;37671;53.258;6.460;2022-07-23T06:24:58;3.78;;;1.90;;
51588;SDS011;37671;53.258;6.460;2022-07-23T06:27:24;4.03;;;1.95;;
51588;SDS011;37671;53.258;6.460;2022-07-23T06:29:49;5.63;;;1.70;;
51588;SDS011;37671;53.258;6.460;2022-07-23T06:32:15;4.00;;;1.58;;
51588;SDS011;37671;53.258;6.460;2022-07-23T06:34:41;5.90;;;1.73;;
51588;SDS011;37671;53.258;6.460;2022-07-23T06:37:06;4.82;;;1.60;;
51588;SDS011;37671;53.258;6.460;2022-07-23T06:39:32;5.28;;;1.45;;
51588;SDS011;37671;53.258;6.460;2022-07-23T06:41:58;5.10;;;1.55;;
51588;SDS011;37671;53.258;6.460;2022-07-23T06:44:24;16.15;;;1.98;;
51588;SDS011;37671;53.258;6.460;2022-07-23T06:46:49;11.52;;;1.70;;
51588;SDS011;37671;53.258;6.460;2022-07-23T06:49:15;7.53;;;1.00;;
51588;SDS011;37671;53.258;6.460;2022-07-23T06:51:40;1.42;;;0.77;;
51588;SDS011;37671;53.258;6.460;2022-07-23T06:54:06;4.22;;;0.88;;
51588;SDS011;37671;53.258;6.460;2022-07-23T06:56:32;6.15;;;0.80;;
51588;SDS011;37671;53.258;6.460;2022-07-23T06:58:57;2.53;;;0.57;;
51588;SDS011;37671;53.258;6.460;2022-07-23T07:01:23;2.67;;;0.40;;
51588;SDS011;37671;53.258;6.460;2022-07-23T07:03:48;2.80;;;0.55;;
51588;SDS011;37671;53.258;6.460;2022-07-23T07:06:14;1.48;;;0.40;;
51588;SDS011;37671;53.258;6.460;2022-07-23T07:08:41;8.82;;;0.60;;
51588;SDS011;37671;53.258;6.460;2022-07-23T07:11:08;4.03;;;0.43;;
51588;SDS011;37671;53.258;6.460;2022-07-23T07:13:34;3.05;;;0.40;;
51588;SDS011;37671;53.258;6.460;2022-07-23T07:16:00;2.97;;;0.40;;
51588;SDS011;37671;53.258;6.460;2022-07-23T07:18:26;1.08;;;0.20;;
51588;SDS011;37671;53.258;6.460;2022-07-23T07:20:52;2.10;;;0.20;;
51588;SDS011;37671;53.258;6.460;2022-07-23T07:23:18;1.65;;;0.20;;
51588;SDS011;37671;53.258;6.460;2022-07-23T07:25:45;1.40;;;0.20;;
51588;SDS011;37671;53.258;6.460;2022-07-23T07:28:11;0.95;;;0.10;;
51588;SDS011;37671;53.258;6.460;2022-07-23T07:30:37;3.20;;;0.20;;
51588;SDS011;37671;53.258;6.460;2022-07-23T07:33:02;1.90;;;0.38;;
51588;SDS011;37671;53.258;6.460;2022-07-23T07:35:28;1.05;;;0.20;;
51588;SDS011;37671;53.258;6.460;2022-07-23T07:37:53;1.98;;;0.38;;
51588;SDS011;37671;53.258;6.460;2022-07-23T07:40:19;1.55;;;0.30;;
51588;SDS011;37671;53.258;6.460;2022-07-23T07:42:49;4.07;;;0.20;;
51588;SDS011;37671;53.258;6.460;2022-07-23T07:45:17;3.10;;;0.50;;
51588;SDS011;37671;53.258;6.460;2022-07-23T07:47:45;2.30;;;0.30;;
51588;SDS011;37671;53.258;6.460;2022-07-23T07:50:10;1.55;;;0.20;;
51588;SDS011;37671;53.258;6.460;2022-07-23T07:52:36;1.95;;;0.35;;
51588;SDS011;37671;53.258;6.460;2022-07-23T07:55:05;4.32;;;0.30;;
51588;SDS011;37671;53.258;6.460;2022-07-23T07:57:32;3.53;;;0.25;;
51588;SDS011;37671;53.258;6.460;2022-07-23T07:59:58;4.40;;;0.20;;
51588;SDS011;37671;53.258;6.460;2022-07-23T08:02:24;1.92;;;0.17;;
51588;SDS011;37671;53.258;6.460;2022-07-23T08:04:49;2.10;;;0.30;;
51588;SDS011;37671;53.258;6.460;2022-07-23T08:07:15;1.30;;;0.20;;
51588;SDS011;37671;53.258;6.460;2022-07-23T08:09:41;2.58;;;0.20;;
51588;SDS011;37671;53.258;6.460;2022-07-23T08:12:07;1.05;;;0.10;;
51588;SDS011;37671;53.258;6.460;2022-07-23T08:14:33;0.93;;;0.20;;
51588;SDS011;37671;53.258;6.460;2022-07-23T08:16:58;1.95;;;0.25;;
51588;SDS011;37671;53.258;6.460;2022-07-23T08:19:24;3.13;;;0.60;;
51588;SDS011;37671;53.258;6.460;2022-07-23T08:21:49;5.45;;;0.30;;
51588;SDS011;37671;53.258;6.460;2022-07-23T08:24:15;1.23;;;0.20;;
51588;SDS011;37671;53.258;6.460;2022-07-23T08:26:41;3.05;;;0.32;;
51588;SDS011;37671;53.258;6.460;2022-07-23T08:29:06;0.55;;;0.20;;
51588;SDS011;37671;53.258;6.460;2022-07-23T08:31:32;4.40;;;0.22;;
51588;SDS011;37671;53.258;6.460;2022-07-23T08:33:58;3.25;;;0.50;;
51588;SDS011;37671;53.258;6.460;2022-07-23T08:36:25;1.20;;;0.30;;
51588;SDS011;37671;53.258;6.460;2022-07-23T08:38:52;2.22;;;0.40;;
51588;SDS011;37671;53.258;6.460;2022-07-23T08:41:19;3.03;;;0.30;;
51588;SDS011;37671;53.258;6.460;2022-07-23T08:43:45;2.35;;;0.20;;
51588;SDS011;37671;53.258;6.460;2022-07-23T08:46:11;1.75;;;0.40;;
51588;SDS011;37671;53.258;6.460;2022-07-23T08:48:39;1.67;;;0.30;;
51588;SDS011;37671;53.258;6.460;2022-07-23T08:51:05;1.95;;;0.20;;
51588;SDS011;37671;53.258;6.460;2022-07-23T08:53:32;1.20;;;0.30;;
51588;SDS011;37671;53.258;6.460;2022-07-23T11:06:26;4.18;;;0.50;;
51588;SDS011;37671;53.258;6.460;2022-07-23T11:25:31;3.63;;;0.50;;
51588;SDS011;37671;53.258;6.460;2022-07-23T11:28:11;3.88;;;0.60;;
51588;SDS011;37671;53.258;6.460;2022-07-23T11:30:40;4.07;;;0.60;;
51588;SDS011;37671;53.258;6.460;2022-07-23T11:35:33;2.83;;;0.40;;
51588;SDS011;37671;53.258;6.460;2022-07-23T11:40:33;2.63;;;0.30;;
51588;SDS011;37671;53.258;6.460;2022-07-23T11:43:06;7.13;;;0.60;;
51588;SDS011;37671;53.258;6.460;2022-07-23T11:48:06;5.63;;;0.70;;
51588;SDS011;37671;53.258;6.460;2022-07-23T11:50:41;4.65;;;0.60;;
51588;SDS011;37671;53.258;6.460;2022-07-23T11:53:07;4.20;;;0.80;;
51588;SDS011;37671;53.258;6.460;2022-07-23T11:55:33;4.85;;;0.60;;
51588;SDS011;37671;53.258;6.460;2022-07-23T11:57:59;2.80;;;0.50;;
51588;SDS011;37671;53.258;6.460;2022-07-23T12:00:26;2.55;;;0.30;;
51588;SDS011;37671;53.258;6.460;2022-07-23T12:03:00;2.50;;;0.30;;
51588;SDS011;37671;53.258;6.460;2022-07-23T12:05:31;1.98;;;0.30;;
51588;SDS011;37671;53.258;6.460;2022-07-23T12:08:00;2.95;;;0.50;;
51588;SDS011;37671;53.258;6.460;2022-07-23T12:10:29;2.38;;;0.40;;
51588;SDS011;37671;53.258;6.460;2022-07-23T12:13:01;3.53;;;0.50;;
51588;SDS011;37671;53.258;6.460;2022-07-23T12:15:33;2.25;;;0.50;;
51588;SDS011;37671;53.258;6.460;2022-07-23T12:18:03;2.92;;;0.40;;
51588;SDS011;37671;53.258;6.460;2022-07-23T12:20:30;2.20;;;0.35;;
51588;SDS011;37671;53.258;6.460;2022-07-23T12:22:59;2.33;;;0.47;;
51588;SDS011;37671;53.258;6.460;2022-07-23T12:25:28;2.10;;;0.40;;
51588;SDS011;37671;53.258;6.460;2022-07-23T12:28:06;2.38;;;0.50;;
51588;SDS011;37671;53.258;6.460;2022-07-23T12:30:40;6.15;;;0.60;;
51588;SDS011;37671;53.258;6.460;2022-07-23T12:33:09;2.38;;;0.50;;
51588;SDS011;37671;53.258;6.460;2022-07-23T12:35:40;1.73;;;0.40;;
51588;SDS011;37671;53.258;6.460;2022-07-23T12:38:09;3.88;;;0.70;;
51588;SDS011;37671;53.258;6.460;2022-07-23T12:40:41;1.38;;;0.38;;
51588;SDS011;37671;53.258;6.460;2022-07-23T12:43:28;2.58;;;0.40;;
51588;SDS011;37671;53.258;6.460;2022-07-23T12:45:57;6.68;;;0.50;;
51588;SDS011;37671;53.258;6.460;2022-07-23T12:48:26;1.55;;;0.45;;
51588;SDS011;37671;53.258;6.460;2022-07-23T12:50:57;3.65;;;0.60;;
51588;SDS011;37671;53.258;6.460;2022-07-23T12:53:38;1.73;;;0.40;;
51588;SDS011;37671;53.258;6.460;2022-07-23T12:56:07;3.30;;;0.50;;
51588;SDS011;37671;53.258;6.460;2022-07-23T12:58:50;2.05;;;0.47;;
51588;SDS011;37671;53.258;6.460;2022-07-23T13:09:10;1.63;;;0.55;;
51588;SDS011;37671;53.258;6.460;2022-07-23T13:11:38;4.97;;;0.40;;
51588;SDS011;37671;53.258;6.460;2022-07-23T13:14:04;3.92;;;0.63;;
51588;SDS011;37671;53.258;6.460;2022-07-23T13:16:30;1.73;;;0.52;;
51588;SDS011;37671;53.258;6.460;2022-07-23T13:18:57;4.38;;;0.68;;
51588;SDS011;37671;53.258;6.460;2022-07-23T13:21:24;3.25;;;0.57;;
51588;SDS011;37671;53.258;6.460;2022-07-23T13:23:51;3.33;;;0.60;;
51588;SDS011;37671;53.258;6.460;2022-07-23T13:26:17;2.55;;;0.70;;
51588;SDS011;37671;53.258;6.460;2022-07-23T13:28:42;2.80;;;0.50;;
51588;SDS011;37671;53.258;6.460;2022-07-23T13:31:08;2.13;;;0.50;;
51588;SDS011;37671;53.258;6.460;2022-07-23T13:33:34;2.55;;;0.65;;
51588;SDS011;37671;53.258;6.460;2022-07-23T13:36:00;2.15;;;0.55;;
51588;SDS011;37671;53.258;6.460;2022-07-23T13:38:26;2.20;;;0.60;;
51588;SDS011;37671;53.258;6.460;2022-07-23T13:40:52;2.88;;;0.47;;
51588;SDS011;37671;53.258;6.460;2022-07-23T13:43:19;2.63;;;0.63;;
51588;SDS011;37671;53.258;6.460;2022-07-23T13:45:46;3.88;;;0.60;;
51588;SDS011;37671;53.258;6.460;2022-07-23T13:48:13;2.75;;;0.60;;
51588;SDS011;37671;53.258;6.460;2022-07-23T13:50:39;3.25;;;0.52;;
51588;SDS011;37671;53.258;6.460;2022-07-23T13:53:08;3.38;;;0.45;;
51588;SDS011;37671;53.258;6.460;2022-07-23T13:55:36;4.85;;;0.70;;
51588;SDS011;37671;53.258;6.460;2022-07-23T13:58:03;2.45;;;0.52;;
51588;SDS011;37671;53.258;6.460;2022-07-23T14:00:31;2.70;;;0.70;;
51588;SDS011;37671;53.258;6.460;2022-07-23T14:02:58;3.97;;;0.60;;
51588;SDS011;37671;53.258;6.460;2022-07-23T14:05:24;4.25;;;0.60;;
51588;SDS011;37671;53.258;6.460;2022-07-23T14:07:50;2.80;;;0.60;;
51588;SDS011;37671;53.258;6.460;2022-07-23T14:10:17;1.50;;;0.40;;
51588;SDS011;37671;53.258;6.460;2022-07-23T14:12:45;2.80;;;0.60;;
51588;SDS011;37671;53.258;6.460;2022-07-23T14:15:12;4.28;;;0.50;;
51588;SDS011;37671;53.258;6.460;2022-07-23T14:17:39;2.78;;;0.60;;
51588;SDS011;37671;53.258;6.460;2022-07-23T14:20:07;4.60;;;0.57;;
51588;SDS011;37671;53.258;6.460;2022-07-23T14:22:34;2.83;;;0.73;;
51588;SDS011;37671;53.258;6.460;2022-07-23T14:24:59;2.22;;;0.50;;
51588;SDS011;37671;53.258;6.460;2022-07-23T14:27:26;2.08;;;0.50;;
51588;SDS011;37671;53.258;6.460;2022-07-23T14:29:52;3.33;;;0.60;;
51588;SDS011;37671;53.258;6.460;2022-07-23T14:32:18;1.58;;;0.50;;
51588;SDS011;37671;53.258;6.460;2022-07-23T14:34:44;3.42;;;0.50;;
51588;SDS011;37671;53.258;6.460;2022-07-23T14:37:10;2.60;;;0.55;;
51588;SDS011;37671;53.258;6.460;2022-07-23T14:39:36;3.60;;;0.60;;
51588;SDS011;37671;53.258;6.460;2022-07-23T14:42:03;3.88;;;0.77;;
51588;SDS011;37671;53.258;6.460;2022-07-23T14:44:29;2.80;;;0.47;;
51588;SDS011;37671;53.258;6.460;2022-07-23T14:46:55;2.03;;;0.50;;
51588;SDS011;37671;53.258;6.460;2022-07-23T14:49:20;4.93;;;0.70;;
51588;SDS011;37671;53.258;6.460;2022-07-23T14:51:46;3.85;;;1.17;;
51588;SDS011;37671;53.258;6.460;2022-07-23T14:54:12;2.28;;;0.55;;
51588;SDS011;37671;53.258;6.460;2022-07-23T14:56:39;3.20;;;0.73;;
51588;SDS011;37671;53.258;6.460;2022-07-23T14:59:05;3.58;;;1.13;;
51588;SDS011;37671;53.258;6.460;2022-07-23T15:01:31;3.03;;;0.60;;
51588;SDS011;37671;53.258;6.460;2022-07-23T15:03:57;4.63;;;0.80;;
51588;SDS011;37671;53.258;6.460;2022-07-23T15:06:23;5.13;;;0.98;;
51588;SDS011;37671;53.258;6.460;2022-07-23T15:08:49;3.45;;;0.88;;
51588;SDS011;37671;53.258;6.460;2022-07-23T15:11:14;2.15;;;0.65;;
51588;SDS011;37671;53.258;6.460;2022-07-23T15:13:40;9.93;;;1.30;;
51588;SDS011;37671;53.258;6.460;2022-07-23T15:16:06;5.05;;;1.40;;
51588;SDS011;37671;53.258;6.460;2022-07-23T15:18:32;4.95;;;1.17;;
51588;SDS011;37671;53.258;6.460;2022-07-23T15:20:57;3.38;;;0.63;;
51588;SDS011;37671;53.258;6.460;2022-07-23T15:23:23;4.50;;;0.55;;
51588;SDS011;37671;53.258;6.460;2022-07-23T15:25:50;5.07;;;0.70;;
51588;SDS011;37671;53.258;6.460;2022-07-23T15:28:16;1.80;;;0.50;;
51588;SDS011;37671;53.258;6.460;2022-07-23T15:30:41;2.17;;;0.50;;
51588;SDS011;37671;53.258;6.460;2022-07-23T15:33:07;4.38;;;0.68;;
51588;SDS011;37671;53.258;6.460;2022-07-23T15:35:32;4.53;;;0.70;;
51588;SDS011;37671;53.258;6.460;2022-07-23T15:37:59;2.72;;;0.60;;
51588;SDS011;37671;53.258;6.460;2022-07-23T15:40:25;6.85;;;0.70;;
51588;SDS011;37671;53.258;6.460;2022-07-23T15:42:50;3.28;;;0.80;;
51588;SDS011;37671;53.258;6.460;2022-07-23T15:45:16;2.53;;;0.60;;
51588;SDS011;37671;53.258;6.460;2022-07-23T15:47:42;3.97;;;0.65;;
51588;SDS011;37671;53.258;6.460;2022-07-23T15:50:08;2.35;;;0.57;;
51588;SDS011;37671;53.258;6.460;2022-07-23T15:52:34;4.22;;;0.75;;
51588;SDS011;37671;53.258;6.460;2022-07-23T15:55:00;3.67;;;0.90;;
51588;SDS011;37671;53.258;6.460;2022-07-23T15:57:27;2.65;;;0.50;;
51588;SDS011;37671;53.258;6.460;2022-07-23T15:59:53;1.80;;;0.60;;
51588;SDS011;37671;53.258;6.460;2022-07-23T16:02:21;5.53;;;0.80;;
51588;SDS011;37671;53.258;6.460;2022-07-23T16:04:47;3.25;;;0.70;;
51588;SDS011;37671;53.258;6.460;2022-07-23T16:07:15;1.80;;;0.55;;
51588;SDS011;37671;53.258;6.460;2022-07-23T16:09:42;5.72;;;0.70;;
51588;SDS011;37671;53.258;6.460;2022-07-23T16:12:07;3.58;;;0.60;;
51588;SDS011;37671;53.258;6.460;2022-07-23T16:14:35;2.88;;;0.70;;
51588;SDS011;37671;53.258;6.460;2022-07-23T16:17:01;2.47;;;0.50;;
51588;SDS011;37671;53.258;6.460;2022-07-23T16:19:26;2.40;;;0.63;;
51588;SDS011;37671;53.258;6.460;2022-07-23T16:21:52;2.78;;;0.70;;
51588;SDS011;37671;53.258;6.460;2022-07-23T16:24:18;2.17;;;0.50;;
51588;SDS011;37671;53.258;6.460;2022-07-23T16:26:44;5.88;;;0.80;;
51588;SDS011;37671;53.258;6.460;2022-07-23T16:29:10;3.10;;;0.52;;
51588;SDS011;37671;53.258;6.460;2022-07-23T16:31:36;1.95;;;0.50;;
51588;SDS011;37671;53.258;6.460;2022-07-23T16:34:02;2.67;;;0.50;;
51588;SDS011;37671;53.258;6.460;2022-07-23T16:36:28;2.47;;;0.55;;
51588;SDS011;37671;53.258;6.460;2022-07-23T16:38:53;3.33;;;0.65;;
51588;SDS011;37671;53.258;6.460;2022-07-23T16:41:20;2.95;;;0.50;;
51588;SDS011;37671;53.258;6.460;2022-07-23T16:43:46;2.25;;;0.52;;
51588;SDS011;37671;53.258;6.460;2022-07-23T16:46:12;2.53;;;0.60;;
51588;SDS011;37671;53.258;6.460;2022-07-23T16:48:38;6.43;;;0.95;;
51588;SDS011;37671;53.258;6.460;2022-07-23T16:51:04;3.80;;;0.70;;
51588;SDS011;37671;53.258;6.460;2022-07-23T16:53:30;2.50;;;0.50;;
51588;SDS011;37671;53.258;6.460;2022-07-23T16:55:55;4.30;;;0.80;;
51588;SDS011;37671;53.258;6.460;2022-07-23T16:58:21;3.88;;;0.90;;
51588;SDS011;37671;53.258;6.460;2022-07-23T17:00:47;2.78;;;0.68;;
51588;SDS011;37671;53.258;6.460;2022-07-23T17:03:13;1.90;;;0.70;;
51588;SDS011;37671;53.258;6.460;2022-07-23T17:05:39;3.13;;;0.80;;
51588;SDS011;37671;53.258;6.460;2022-07-23T17:08:05;2.47;;;0.80;;
51588;SDS011;37671;53.258;6.460;2022-07-23T17:10:31;2.63;;;0.80;;
51588;SDS011;37671;53.258;6.460;2022-07-23T17:12:57;2.65;;;0.68;;
51588;SDS011;37671;53.258;6.460;2022-07-23T17:15:23;4.03;;;1.10;;
51588;SDS011;37671;53.258;6.460;2022-07-23T17:17:49;3.13;;;0.70;;
51588;SDS011;37671;53.258;6.460;2022-07-23T17:20:15;3.00;;;0.75;;
51588;SDS011;37671;53.258;6.460;2022-07-23T17:22:41;2.47;;;0.70;;
51588;SDS011;37671;53.258;6.460;2022-07-23T17:25:08;4.70;;;0.75;;